sensor_id;sensor_type;location;lat;lon;timestamp;temperature;humidity
1005;DHT22;491;53.480;10.174;2023-04-24T00:02:03;14.30;65.60
1005;DHT22;491;53.480;10.174;2023-04-24T00:04:29;14.20;99.90
1005;DHT22;491;53.480;10.174;2023-04-24T00:06:55;14.30;65.80
1005;DHT22;491;53.480;10.174;2023-04-24T00:09:22;14.20;90.80
1005;DHT22;491;53.480;10.174;2023-04-24T00:11:49;14.30;88.30
1005;DHT22;491;53.480;10.174;2023-04-24T00:14:15;14.20;89.10
1005;DHT22;491;53.480;10.174;2023-04-24T00:16:41;14.20;99.90
1005;DHT22;491;53.480;10.174;2023-04-24T00:19:07;14.20;94.70
1005;DHT22;491;53.480;10.174;2023-04-24T00:21:32;14.30;92.00
1005;DHT22;491;53.480;10.174;2023-04-24T00:23:58;14.30;72.50
1005;DHT22;491;53.480;10.174;2023-04-24T00:26:23;14.30;56.90
1005;DHT22;491;53.480;10.174;2023-04-24T00:28:49;14.20;80.70
1005;DHT22;491;53.480;10.174;2023-04-24T00:31:15;14.20;99.90
1005;DHT22;491;53.480;10.174;2023-04-24T00:33:40;14.10;99.90
1005;DHT22;491;53.480;10.174;2023-04-24T00:36:07;14.10;99.90
1005;DHT22;491;53.480;10.174;2023-04-24T00:38:32;14.10;99.90
1005;DHT22;491;53.480;10.174;2023-04-24T00:40:58;14.10;99.90
1005;DHT22;491;53.480;10.174;2023-04-24T00:43:24;14.20;98.70
1005;DHT22;491;53.480;10.174;2023-04-24T00:45:53;14.10;99.90
1005;DHT22;491;53.480;10.174;2023-04-24T00:48:20;14.00;99.90
1005;DHT22;491;53.480;10.174;2023-04-24T00:50:47;14.00;99.90
1005;DHT22;491;53.480;10.174;2023-04-24T00:53:12;13.90;99.90
1005;DHT22;491;53.480;10.174;2023-04-24T00:55:52;13.90;99.90
1005;DHT22;491;53.480;10.174;2023-04-24T00:58:18;13.90;99.90
1005;DHT22;491;53.480;10.174;2023-04-24T01:00:44;13.90;99.90
1005;DHT22;491;53.480;10.174;2023-04-24T01:03:14;13.90;99.90
1005;DHT22;491;53.480;10.174;2023-04-24T01:05:41;13.90;99.90
1005;DHT22;491;53.480;10.174;2023-04-24T01:08:06;13.80;99.90
1005;DHT22;491;53.480;10.174;2023-04-24T01:10:34;13.80;99.90
1005;DHT22;491;53.480;10.174;2023-04-24T01:13:06;13.80;99.90
1005;DHT22;491;53.480;10.174;2023-04-24T01:15:43;13.80;99.90
1005;DHT22;491;53.480;10.174;2023-04-24T01:18:08;13.80;99.90
1005;DHT22;491;53.480;10.174;2023-04-24T01:20:34;13.80;99.90
1005;DHT22;491;53.480;10.174;2023-04-24T01:23:00;13.80;99.90
1005;DHT22;491;53.480;10.174;2023-04-24T01:25:28;13.80;99.90
1005;DHT22;491;53.480;10.174;2023-04-24T01:27:56;13.70;99.90
1005;DHT22;491;53.480;10.174;2023-04-24T01:30:21;13.70;99.90
1005;DHT22;491;53.480;10.174;2023-04-24T01:32:48;13.60;99.90
1005;DHT22;491;53.480;10.174;2023-04-24T01:35:13;13.50;99.90
1005;DHT22;491;53.480;10.174;2023-04-24T01:37:39;13.50;99.90
1005;DHT22;491;53.480;10.174;2023-04-24T01:40:06;13.50;99.90
1005;DHT22;491;53.480;10.174;2023-04-24T01:42:33;13.40;99.90
1005;DHT22;491;53.480;10.174;2023-04-24T01:44:59;13.40;99.90
1005;DHT22;491;53.480;10.174;2023-04-24T01:47:27;13.50;99.90
1005;DHT22;491;53.480;10.174;2023-04-24T01:49:53;13.50;99.90
1005;DHT22;491;53.480;10.174;2023-04-24T01:52:19;13.50;99.90
1005;DHT22;491;53.480;10.174;2023-04-24T01:54:47;13.40;99.90
1005;DHT22;491;53.480;10.174;2023-04-24T01:57:14;13.40;99.90
1005;DHT22;491;53.480;10.174;2023-04-24T01:59:46;13.30;99.90
1005;DHT22;491;53.480;10.174;2023-04-24T02:02:12;13.30;99.90
1005;DHT22;491;53.480;10.174;2023-04-24T02:04:39;13.30;99.90
1005;DHT22;491;53.480;10.174;2023-04-24T02:07:10;13.30;99.90
1005;DHT22;491;53.480;10.174;2023-04-24T02:09:36;13.30;99.90
1005;DHT22;491;53.480;10.174;2023-04-24T02:12:03;13.30;99.90
1005;DHT22;491;53.480;10.174;2023-04-24T02:14:29;13.30;99.90
1005;DHT22;491;53.480;10.174;2023-04-24T02:16:57;13.30;99.90
1005;DHT22;491;53.480;10.174;2023-04-24T02:19:23;13.10;99.90
1005;DHT22;491;53.480;10.174;2023-04-24T02:21:49;13.00;99.90
1005;DHT22;491;53.480;10.174;2023-04-24T02:24:14;12.90;99.90
1005;DHT22;491;53.480;10.174;2023-04-24T02:26:41;12.90;99.90
1005;DHT22;491;53.480;10.174;2023-04-24T02:29:06;12.90;99.90
1005;DHT22;491;53.480;10.174;2023-04-24T02:31:32;12.90;99.90
1005;DHT22;491;53.480;10.174;2023-04-24T02:33:57;12.90;99.90
1005;DHT22;491;53.480;10.174;2023-04-24T02:36:23;12.90;99.90
1005;DHT22;491;53.480;10.174;2023-04-24T02:38:48;12.90;99.90
1005;DHT22;491;53.480;10.174;2023-04-24T02:41:14;12.90;99.90
1005;DHT22;491;53.480;10.174;2023-04-24T02:43:39;12.90;99.90
1005;DHT22;491;53.480;10.174;2023-04-24T02:46:04;13.00;99.90
1005;DHT22;491;53.480;10.174;2023-04-24T02:48:30;13.00;99.90
1005;DHT22;491;53.480;10.174;2023-04-24T02:50:58;12.90;47.00
1005;DHT22;491;53.480;10.174;2023-04-24T02:53:23;12.90;96.40
1005;DHT22;491;53.480;10.174;2023-04-24T02:55:50;12.90;58.30
1005;DHT22;491;53.480;10.174;2023-04-24T02:58:15;12.80;59.10
1005;DHT22;491;53.480;10.174;2023-04-24T03:00:42;12.80;40.50
1005;DHT22;491;53.480;10.174;2023-04-24T03:03:08;12.80;73.30
1005;DHT22;491;53.480;10.174;2023-04-24T03:05:34;12.80;30.20
1005;DHT22;491;53.480;10.174;2023-04-24T03:07:59;12.80;6.10
1005;DHT22;491;53.480;10.174;2023-04-24T03:10:25;12.70;15.40
1005;DHT22;491;53.480;10.174;2023-04-24T03:12:50;12.70;5.30
1005;DHT22;491;53.480;10.174;2023-04-24T03:15:16;12.70;1.00
1005;DHT22;491;53.480;10.174;2023-04-24T03:17:42;12.60;2.40
1005;DHT22;491;53.480;10.174;2023-04-24T03:20:09;12.60;1.00
1005;DHT22;491;53.480;10.174;2023-04-24T03:22:35;12.70;1.00
1005;DHT22;491;53.480;10.174;2023-04-24T03:25:00;12.60;1.00
1005;DHT22;491;53.480;10.174;2023-04-24T03:27:29;12.60;1.00
1005;DHT22;491;53.480;10.174;2023-04-24T03:29:55;12.60;1.00
1005;DHT22;491;53.480;10.174;2023-04-24T03:32:22;12.60;1.00
1005;DHT22;491;53.480;10.174;2023-04-24T03:34:48;12.60;1.00
1005;DHT22;491;53.480;10.174;2023-04-24T03:37:14;12.60;1.00
1005;DHT22;491;53.480;10.174;2023-04-24T03:39:41;12.40;1.00
1005;DHT22;491;53.480;10.174;2023-04-24T03:42:06;12.50;1.00
1005;DHT22;491;53.480;10.174;2023-04-24T03:44:34;12.50;1.00
1005;DHT22;491;53.480;10.174;2023-04-24T03:46:59;12.40;1.00
1005;DHT22;491;53.480;10.174;2023-04-24T03:49:25;12.40;1.00
1005;DHT22;491;53.480;10.174;2023-04-24T03:51:51;12.50;1.00
1005;DHT22;491;53.480;10.174;2023-04-24T03:54:18;12.40;1.00
1005;DHT22;491;53.480;10.174;2023-04-24T03:56:43;12.30;1.00
1005;DHT22;491;53.480;10.174;2023-04-24T03:59:09;12.30;1.00
1005;DHT22;491;53.480;10.174;2023-04-24T04:01:35;12.30;1.00
1005;DHT22;491;53.480;10.174;2023-04-24T04:04:03;12.30;1.00
1005;DHT22;491;53.480;10.174;2023-04-24T04:06:29;12.30;1.00
1005;DHT22;491;53.480;10.174;2023-04-24T04:08:56;12.30;1.00
1005;DHT22;491;53.480;10.174;2023-04-24T04:11:23;12.40;1.00
1005;DHT22;491;53.480;10.174;2023-04-24T04:13:49;12.30;1.00
1005;DHT22;491;53.480;10.174;2023-04-24T04:16:14;12.30;1.00
1005;DHT22;491;53.480;10.174;2023-04-24T04:18:45;12.30;1.00
1005;DHT22;491;53.480;10.174;2023-04-24T04:21:11;12.20;1.00
1005;DHT22;491;53.480;10.174;2023-04-24T04:23:36;12.10;1.00
1005;DHT22;491;53.480;10.174;2023-04-24T04:26:03;12.10;1.00
1005;DHT22;491;53.480;10.174;2023-04-24T04:28:32;12.20;1.00
1005;DHT22;491;53.480;10.174;2023-04-24T04:30:57;12.10;1.00
1005;DHT22;491;53.480;10.174;2023-04-24T04:33:24;12.10;1.00
1005;DHT22;491;53.480;10.174;2023-04-24T04:35:50;12.10;1.00
1005;DHT22;491;53.480;10.174;2023-04-24T04:38:17;12.20;1.00
1005;DHT22;491;53.480;10.174;2023-04-24T04:40:43;12.20;1.00
1005;DHT22;491;53.480;10.174;2023-04-24T04:43:09;12.20;1.00
1005;DHT22;491;53.480;10.174;2023-04-24T04:45:35;12.30;99.90
1005;DHT22;491;53.480;10.174;2023-04-24T04:48:01;12.30;99.90
1005;DHT22;491;53.480;10.174;2023-04-24T04:50:27;12.30;99.90
1005;DHT22;491;53.480;10.174;2023-04-24T04:52:53;12.20;99.90
1005;DHT22;491;53.480;10.174;2023-04-24T04:55:18;12.20;99.90
1005;DHT22;491;53.480;10.174;2023-04-24T04:57:47;12.20;99.90
1005;DHT22;491;53.480;10.174;2023-04-24T05:00:12;12.20;99.90
1005;DHT22;491;53.480;10.174;2023-04-24T05:02:39;12.20;99.90
1005;DHT22;491;53.480;10.174;2023-04-24T05:05:05;12.20;99.90
1005;DHT22;491;53.480;10.174;2023-04-24T05:07:31;12.20;99.90
1005;DHT22;491;53.480;10.174;2023-04-24T05:09:57;12.30;99.90
1005;DHT22;491;53.480;10.174;2023-04-24T05:12:25;12.30;99.90
1005;DHT22;491;53.480;10.174;2023-04-24T05:14:54;12.40;99.90
1005;DHT22;491;53.480;10.174;2023-04-24T05:17:19;12.50;99.90
1005;DHT22;491;53.480;10.174;2023-04-24T05:19:45;12.60;99.90
1005;DHT22;491;53.480;10.174;2023-04-24T05:22:10;12.70;99.90
1005;DHT22;491;53.480;10.174;2023-04-24T05:24:36;12.90;59.90
1005;DHT22;491;53.480;10.174;2023-04-24T05:27:03;12.90;1.00
1005;DHT22;491;53.480;10.174;2023-04-24T05:29:30;13.00;1.00
1005;DHT22;491;53.480;10.174;2023-04-24T05:31:59;13.30;99.90
1005;DHT22;491;53.480;10.174;2023-04-24T05:34:25;13.40;1.00
1005;DHT22;491;53.480;10.174;2023-04-24T05:36:50;13.50;99.90
1005;DHT22;491;53.480;10.174;2023-04-24T05:39:16;13.60;1.00
1005;DHT22;491;53.480;10.174;2023-04-24T05:41:42;13.80;1.00
1005;DHT22;491;53.480;10.174;2023-04-24T05:44:07;14.20;99.90
1005;DHT22;491;53.480;10.174;2023-04-24T05:46:33;14.60;99.90
1005;DHT22;491;53.480;10.174;2023-04-24T05:48:58;15.00;1.00
1005;DHT22;491;53.480;10.174;2023-04-24T05:51:31;15.20;1.00
1005;DHT22;491;53.480;10.174;2023-04-24T05:53:57;15.40;99.90
1005;DHT22;491;53.480;10.174;2023-04-24T05:56:24;15.50;1.00
1005;DHT22;491;53.480;10.174;2023-04-24T05:58:52;15.60;1.00
1005;DHT22;491;53.480;10.174;2023-04-24T06:01:17;16.00;1.00
1005;DHT22;491;53.480;10.174;2023-04-24T06:03:43;16.10;99.90
1005;DHT22;491;53.480;10.174;2023-04-24T06:06:09;16.20;99.90
1005;DHT22;491;53.480;10.174;2023-04-24T06:08:35;16.30;99.90
1005;DHT22;491;53.480;10.174;2023-04-24T06:11:01;16.70;99.90
1005;DHT22;491;53.480;10.174;2023-04-24T06:13:26;16.80;99.90
1005;DHT22;491;53.480;10.174;2023-04-24T06:15:55;16.90;99.90
1005;DHT22;491;53.480;10.174;2023-04-24T06:18:20;16.80;99.90
1005;DHT22;491;53.480;10.174;2023-04-24T06:20:49;17.10;99.90
1005;DHT22;491;53.480;10.174;2023-04-24T06:23:14;17.50;95.20
1005;DHT22;491;53.480;10.174;2023-04-24T06:25:40;17.70;67.30
1005;DHT22;491;53.480;10.174;2023-04-24T06:28:06;17.80;48.90
1005;DHT22;491;53.480;10.174;2023-04-24T06:30:32;17.80;37.10
1005;DHT22;491;53.480;10.174;2023-04-24T06:32:59;18.00;26.60
1005;DHT22;491;53.480;10.174;2023-04-24T06:35:24;18.20;25.90
1005;DHT22;491;53.480;10.174;2023-04-24T06:37:51;18.70;26.30
1005;DHT22;491;53.480;10.174;2023-04-24T06:40:16;18.50;5.90
1005;DHT22;491;53.480;10.174;2023-04-24T06:42:44;18.40;8.00
1005;DHT22;491;53.480;10.174;2023-04-24T06:45:09;18.60;9.30
1005;DHT22;491;53.480;10.174;2023-04-24T06:47:36;19.10;7.60
1005;DHT22;491;53.480;10.174;2023-04-24T06:50:03;19.20;1.00
1005;DHT22;491;53.480;10.174;2023-04-24T06:52:32;19.50;1.00
1005;DHT22;491;53.480;10.174;2023-04-24T06:55:02;19.50;1.00
1005;DHT22;491;53.480;10.174;2023-04-24T06:57:32;19.60;1.00
1005;DHT22;491;53.480;10.174;2023-04-24T06:59:58;19.80;1.00
1005;DHT22;491;53.480;10.174;2023-04-24T07:02:24;20.20;1.00
1005;DHT22;491;53.480;10.174;2023-04-24T07:04:52;20.40;1.00
1005;DHT22;491;53.480;10.174;2023-04-24T07:07:18;20.30;1.00
1005;DHT22;491;53.480;10.174;2023-04-24T07:09:43;20.10;1.00
1005;DHT22;491;53.480;10.174;2023-04-24T07:12:11;20.30;1.00
1005;DHT22;491;53.480;10.174;2023-04-24T07:14:37;20.00;1.00
1005;DHT22;491;53.480;10.174;2023-04-24T07:17:04;20.30;1.00
1005;DHT22;491;53.480;10.174;2023-04-24T07:19:30;20.20;1.00
1005;DHT22;491;53.480;10.174;2023-04-24T07:21:56;20.20;1.00
1005;DHT22;491;53.480;10.174;2023-04-24T07:24:24;20.10;1.00
1005;DHT22;491;53.480;10.174;2023-04-24T07:26:51;19.80;1.00
1005;DHT22;491;53.480;10.174;2023-04-24T07:29:17;19.40;1.00
1005;DHT22;491;53.480;10.174;2023-04-24T07:31:42;19.30;1.00
1005;DHT22;491;53.480;10.174;2023-04-24T07:34:08;19.00;1.00
1005;DHT22;491;53.480;10.174;2023-04-24T07:36:33;18.60;1.00
1005;DHT22;491;53.480;10.174;2023-04-24T07:38:59;18.30;1.00
1005;DHT22;491;53.480;10.174;2023-04-24T07:41:24;18.20;1.00
1005;DHT22;491;53.480;10.174;2023-04-24T07:43:50;18.30;1.00
1005;DHT22;491;53.480;10.174;2023-04-24T07:46:16;18.90;1.00
1005;DHT22;491;53.480;10.174;2023-04-24T07:48:41;19.40;1.00
1005;DHT22;491;53.480;10.174;2023-04-24T07:51:07;19.50;1.00
1005;DHT22;491;53.480;10.174;2023-04-24T07:53:35;19.20;1.00
1005;DHT22;491;53.480;10.174;2023-04-24T07:56:00;19.00;1.00
1005;DHT22;491;53.480;10.174;2023-04-24T07:58:26;19.00;1.00
1005;DHT22;491;53.480;10.174;2023-04-24T08:00:51;19.00;1.00
1005;DHT22;491;53.480;10.174;2023-04-24T08:03:17;19.50;1.00
1005;DHT22;491;53.480;10.174;2023-04-24T08:05:44;19.70;1.00
1005;DHT22;491;53.480;10.174;2023-04-24T08:08:10;19.30;1.00
1005;DHT22;491;53.480;10.174;2023-04-24T08:10:35;18.70;1.00
1005;DHT22;491;53.480;10.174;2023-04-24T08:13:01;18.10;1.00
1005;DHT22;491;53.480;10.174;2023-04-24T08:15:27;17.70;1.00
1005;DHT22;491;53.480;10.174;2023-04-24T08:17:53;17.40;1.00
1005;DHT22;491;53.480;10.174;2023-04-24T08:20:18;17.30;1.00
1005;DHT22;491;53.480;10.174;2023-04-24T08:22:44;17.30;1.00
1005;DHT22;491;53.480;10.174;2023-04-24T08:25:12;17.60;1.00
1005;DHT22;491;53.480;10.174;2023-04-24T08:27:38;17.60;1.00
1005;DHT22;491;53.480;10.174;2023-04-24T08:30:05;17.00;1.00
1005;DHT22;491;53.480;10.174;2023-04-24T08:32:31;16.70;1.00
1005;DHT22;491;53.480;10.174;2023-04-24T08:34:57;17.20;1.00
1005;DHT22;491;53.480;10.174;2023-04-24T08:37:23;17.80;1.00
1005;DHT22;491;53.480;10.174;2023-04-24T08:39:50;18.00;1.00
1005;DHT22;491;53.480;10.174;2023-04-24T08:42:17;18.10;1.00
1005;DHT22;491;53.480;10.174;2023-04-24T08:44:43;18.50;1.00
1005;DHT22;491;53.480;10.174;2023-04-24T08:47:10;19.40;1.00
1005;DHT22;491;53.480;10.174;2023-04-24T08:49:39;20.30;1.00
1005;DHT22;491;53.480;10.174;2023-04-24T08:52:08;20.90;1.00
1005;DHT22;491;53.480;10.174;2023-04-24T08:54:34;21.10;1.00
1005;DHT22;491;53.480;10.174;2023-04-24T08:57:02;20.90;1.00
1005;DHT22;491;53.480;10.174;2023-04-24T08:59:29;20.40;1.00
1005;DHT22;491;53.480;10.174;2023-04-24T09:01:56;20.50;1.00
1005;DHT22;491;53.480;10.174;2023-04-24T09:04:22;20.20;1.00
1005;DHT22;491;53.480;10.174;2023-04-24T09:06:50;19.80;1.00
1005;DHT22;491;53.480;10.174;2023-04-24T09:09:17;19.40;1.00
1005;DHT22;491;53.480;10.174;2023-04-24T09:11:43;18.90;1.00
1005;DHT22;491;53.480;10.174;2023-04-24T09:14:12;18.70;1.00
1005;DHT22;491;53.480;10.174;2023-04-24T09:16:38;18.40;1.00
1005;DHT22;491;53.480;10.174;2023-04-24T09:19:04;17.80;1.00
1005;DHT22;491;53.480;10.174;2023-04-24T09:21:33;17.60;1.00
1005;DHT22;491;53.480;10.174;2023-04-24T09:24:05;17.10;1.00
1005;DHT22;491;53.480;10.174;2023-04-24T09:26:31;17.00;1.00
1005;DHT22;491;53.480;10.174;2023-04-24T09:28:58;17.00;1.00
1005;DHT22;491;53.480;10.174;2023-04-24T09:31:27;16.90;1.00
1005;DHT22;491;53.480;10.174;2023-04-24T09:34:03;16.80;1.00
1005;DHT22;491;53.480;10.174;2023-04-24T09:36:42;16.50;1.00
1005;DHT22;491;53.480;10.174;2023-04-24T09:39:12;16.30;1.00
1005;DHT22;491;53.480;10.174;2023-04-24T09:41:46;16.30;1.00
1005;DHT22;491;53.480;10.174;2023-04-24T09:44:19;16.30;1.00
1005;DHT22;491;53.480;10.174;2023-04-24T09:46:53;16.50;1.00
1005;DHT22;491;53.480;10.174;2023-04-24T09:51:52;16.60;1.00
1005;DHT22;491;53.480;10.174;2023-04-24T09:54:21;16.40;1.00
1005;DHT22;491;53.480;10.174;2023-04-24T09:56:50;16.40;1.00
1005;DHT22;491;53.480;10.174;2023-04-24T09:59:18;16.30;1.00
1005;DHT22;491;53.480;10.174;2023-04-24T10:01:43;16.30;1.00
1005;DHT22;491;53.480;10.174;2023-04-24T10:04:23;16.40;1.00
1005;DHT22;491;53.480;10.174;2023-04-24T10:06:53;16.60;13.30
1005;DHT22;491;53.480;10.174;2023-04-24T10:09:21;16.80;20.90
1005;DHT22;491;53.480;10.174;2023-04-24T10:11:49;16.70;1.00
1005;DHT22;491;53.480;10.174;2023-04-24T10:14:17;16.80;1.00
1005;DHT22;491;53.480;10.174;2023-04-24T10:16:43;16.80;1.00
1005;DHT22;491;53.480;10.174;2023-04-24T10:19:09;16.90;1.00
1005;DHT22;491;53.480;10.174;2023-04-24T10:21:35;17.10;1.00
1005;DHT22;491;53.480;10.174;2023-04-24T10:24:03;17.40;1.00
1005;DHT22;491;53.480;10.174;2023-04-24T10:26:30;17.70;1.00
1005;DHT22;491;53.480;10.174;2023-04-24T10:28:57;17.70;1.00
1005;DHT22;491;53.480;10.174;2023-04-24T10:31:23;17.80;1.00
1005;DHT22;491;53.480;10.174;2023-04-24T10:33:50;17.70;1.00
1005;DHT22;491;53.480;10.174;2023-04-24T11:02:58;16.30;1.00
1005;DHT22;491;53.480;10.174;2023-04-24T11:05:55;17.60;1.00
1005;DHT22;491;53.480;10.174;2023-04-24T11:08:29;17.70;1.00
1005;DHT22;491;53.480;10.174;2023-04-24T11:11:01;17.80;1.00
1005;DHT22;491;53.480;10.174;2023-04-24T11:19:07;18.80;1.00
1005;DHT22;491;53.480;10.174;2023-04-24T11:32:15;17.80;1.00
1005;DHT22;491;53.480;10.174;2023-04-24T11:34:48;17.70;1.00
1005;DHT22;491;53.480;10.174;2023-04-24T11:37:14;17.80;1.00
1005;DHT22;491;53.480;10.174;2023-04-24T11:39:40;17.80;1.00
1005;DHT22;491;53.480;10.174;2023-04-24T11:42:07;17.90;1.00
1005;DHT22;491;53.480;10.174;2023-04-24T11:44:34;18.00;1.00
1005;DHT22;491;53.480;10.174;2023-04-24T11:47:00;18.00;1.00
1005;DHT22;491;53.480;10.174;2023-04-24T11:49:29;17.70;1.00
1005;DHT22;491;53.480;10.174;2023-04-24T11:51:55;17.70;1.00
1005;DHT22;491;53.480;10.174;2023-04-24T11:54:21;17.60;1.00
1005;DHT22;491;53.480;10.174;2023-04-24T11:56:47;17.70;1.00
1005;DHT22;491;53.480;10.174;2023-04-24T11:59:14;17.80;1.00
1005;DHT22;491;53.480;10.174;2023-04-24T12:01:44;18.50;1.00
1005;DHT22;491;53.480;10.174;2023-04-24T12:04:10;19.40;1.00
1005;DHT22;491;53.480;10.174;2023-04-24T12:06:35;20.00;1.00
1005;DHT22;491;53.480;10.174;2023-04-24T12:09:01;20.20;1.00
1005;DHT22;491;53.480;10.174;2023-04-24T12:11:26;19.90;1.00
1005;DHT22;491;53.480;10.174;2023-04-24T12:13:52;19.60;1.00
1005;DHT22;491;53.480;10.174;2023-04-24T12:16:17;19.30;1.00
1005;DHT22;491;53.480;10.174;2023-04-24T12:18:44;19.20;1.00
1005;DHT22;491;53.480;10.174;2023-04-24T12:21:22;19.10;1.00
1005;DHT22;491;53.480;10.174;2023-04-24T12:23:50;18.70;1.00
1005;DHT22;491;53.480;10.174;2023-04-24T12:26:19;18.50;1.00
1005;DHT22;491;53.480;10.174;2023-04-24T12:28:49;18.30;1.00
1005;DHT22;491;53.480;10.174;2023-04-24T12:31:16;18.20;1.00
1005;DHT22;491;53.480;10.174;2023-04-24T12:33:42;17.70;1.00
1005;DHT22;491;53.480;10.174;2023-04-24T12:36:10;17.50;1.00
1005;DHT22;491;53.480;10.174;2023-04-24T12:38:37;17.40;1.00
1005;DHT22;491;53.480;10.174;2023-04-24T12:41:08;17.50;1.00
1005;DHT22;491;53.480;10.174;2023-04-24T12:43:34;17.40;1.00
1005;DHT22;491;53.480;10.174;2023-04-24T12:45:59;16.90;1.00
1005;DHT22;491;53.480;10.174;2023-04-24T12:48:26;16.70;1.00
1005;DHT22;491;53.480;10.174;2023-04-24T12:50:52;16.30;1.00
1005;DHT22;491;53.480;10.174;2023-04-24T12:53:17;16.30;1.00
1005;DHT22;491;53.480;10.174;2023-04-24T12:55:43;16.40;1.00
1005;DHT22;491;53.480;10.174;2023-04-24T12:58:09;16.00;1.00
1005;DHT22;491;53.480;10.174;2023-04-24T13:00:35;15.60;1.00
1005;DHT22;491;53.480;10.174;2023-04-24T13:03:01;15.30;1.00
1005;DHT22;491;53.480;10.174;2023-04-24T13:05:27;15.30;1.00
1005;DHT22;491;53.480;10.174;2023-04-24T13:07:52;15.30;1.00
1005;DHT22;491;53.480;10.174;2023-04-24T13:10:18;15.30;1.00
1005;DHT22;491;53.480;10.174;2023-04-24T13:12:44;15.30;1.00
1005;DHT22;491;53.480;10.174;2023-04-24T13:15:11;15.30;1.00
1005;DHT22;491;53.480;10.174;2023-04-24T13:17:37;15.40;1.00
1005;DHT22;491;53.480;10.174;2023-04-24T13:20:03;15.50;1.00
1005;DHT22;491;53.480;10.174;2023-04-24T13:22:28;15.50;1.00
1005;DHT22;491;53.480;10.174;2023-04-24T13:24:54;15.30;1.00
1005;DHT22;491;53.480;10.174;2023-04-24T13:27:20;15.40;1.00
1005;DHT22;491;53.480;10.174;2023-04-24T13:29:45;15.10;99.90
1005;DHT22;491;53.480;10.174;2023-04-24T13:32:11;14.90;99.90
1005;DHT22;491;53.480;10.174;2023-04-24T13:34:36;14.70;1.00
1005;DHT22;491;53.480;10.174;2023-04-24T13:37:02;14.60;1.00
1005;DHT22;491;53.480;10.174;2023-04-24T13:39:29;14.50;77.70
1005;DHT22;491;53.480;10.174;2023-04-24T13:41:57;14.20;1.00
1005;DHT22;491;53.480;10.174;2023-04-24T13:44:24;14.20;1.00
1005;DHT22;491;53.480;10.174;2023-04-24T13:46:53;14.20;99.90
1005;DHT22;491;53.480;10.174;2023-04-24T13:49:20;14.10;1.00
1005;DHT22;491;53.480;10.174;2023-04-24T13:51:46;14.20;1.00
1005;DHT22;491;53.480;10.174;2023-04-24T13:54:12;14.20;1.00
1005;DHT22;491;53.480;10.174;2023-04-24T13:56:39;14.30;99.90
1005;DHT22;491;53.480;10.174;2023-04-24T13:59:07;14.20;99.90
1005;DHT22;491;53.480;10.174;2023-04-24T14:01:37;14.20;1.00
1005;DHT22;491;53.480;10.174;2023-04-24T14:04:02;14.20;99.90
1005;DHT22;491;53.480;10.174;2023-04-24T14:06:28;14.30;1.00
1005;DHT22;491;53.480;10.174;2023-04-24T14:08:53;14.30;99.90
1005;DHT22;491;53.480;10.174;2023-04-24T14:11:19;14.30;99.90
1005;DHT22;491;53.480;10.174;2023-04-24T14:13:45;14.40;1.00
1005;DHT22;491;53.480;10.174;2023-04-24T14:16:11;14.40;3.90
1005;DHT22;491;53.480;10.174;2023-04-24T14:18:36;14.50;1.00
1005;DHT22;491;53.480;10.174;2023-04-24T14:21:03;14.60;99.90
1005;DHT22;491;53.480;10.174;2023-04-24T14:23:28;14.70;1.00
1005;DHT22;491;53.480;10.174;2023-04-24T14:25:54;14.70;99.90
1005;DHT22;491;53.480;10.174;2023-04-24T14:28:20;14.60;99.90
1005;DHT22;491;53.480;10.174;2023-04-24T14:30:47;14.70;99.90
1005;DHT22;491;53.480;10.174;2023-04-24T14:33:12;14.70;99.90
1005;DHT22;491;53.480;10.174;2023-04-24T14:35:39;14.70;99.90
1005;DHT22;491;53.480;10.174;2023-04-24T14:38:04;14.70;99.90
1005;DHT22;491;53.480;10.174;2023-04-24T14:40:30;14.60;99.90
1005;DHT22;491;53.480;10.174;2023-04-24T14:42:57;14.70;99.90
1005;DHT22;491;53.480;10.174;2023-04-24T14:45:26;14.70;99.90
1005;DHT22;491;53.480;10.174;2023-04-24T14:47:52;14.80;99.90
1005;DHT22;491;53.480;10.174;2023-04-24T14:50:19;14.90;99.90
1005;DHT22;491;53.480;10.174;2023-04-24T14:52:44;15.10;99.90
1005;DHT22;491;53.480;10.174;2023-04-24T14:55:10;15.20;99.90
1005;DHT22;491;53.480;10.174;2023-04-24T14:57:35;14.90;99.90
1005;DHT22;491;53.480;10.174;2023-04-24T15:00:07;14.80;99.90
1005;DHT22;491;53.480;10.174;2023-04-24T15:02:36;14.60;99.90
1005;DHT22;491;53.480;10.174;2023-04-24T15:05:06;14.20;1.00
1005;DHT22;491;53.480;10.174;2023-04-24T15:07:31;14.00;1.00
1005;DHT22;491;53.480;10.174;2023-04-24T15:10:01;13.80;1.00
1005;DHT22;491;53.480;10.174;2023-04-24T15:12:26;13.60;99.90
1005;DHT22;491;53.480;10.174;2023-04-24T15:14:54;13.50;99.90
1005;DHT22;491;53.480;10.174;2023-04-24T15:17:22;13.40;1.00
1005;DHT22;491;53.480;10.174;2023-04-24T15:19:47;13.10;99.90
1005;DHT22;491;53.480;10.174;2023-04-24T15:22:13;13.10;1.00
1005;DHT22;491;53.480;10.174;2023-04-24T15:24:39;13.10;1.00
1005;DHT22;491;53.480;10.174;2023-04-24T15:27:09;13.00;1.00
1005;DHT22;491;53.480;10.174;2023-04-24T15:29:36;12.90;1.00
1005;DHT22;491;53.480;10.174;2023-04-24T15:32:03;12.80;32.40
1005;DHT22;491;53.480;10.174;2023-04-24T15:34:29;12.50;99.90
1005;DHT22;491;53.480;10.174;2023-04-24T15:36:55;12.40;99.90
1005;DHT22;491;53.480;10.174;2023-04-24T15:39:23;12.40;99.90
1005;DHT22;491;53.480;10.174;2023-04-24T15:41:57;12.40;99.90
1005;DHT22;491;53.480;10.174;2023-04-24T15:44:24;12.40;99.90
1005;DHT22;491;53.480;10.174;2023-04-24T15:46:49;12.40;99.90
1005;DHT22;491;53.480;10.174;2023-04-24T15:49:18;12.40;99.90
1005;DHT22;491;53.480;10.174;2023-04-24T15:51:43;12.10;99.90
1005;DHT22;491;53.480;10.174;2023-04-24T15:54:09;12.00;99.90
1005;DHT22;491;53.480;10.174;2023-04-24T15:56:34;12.00;99.90
1005;DHT22;491;53.480;10.174;2023-04-24T15:59:01;12.00;99.90
1005;DHT22;491;53.480;10.174;2023-04-24T16:01:29;11.90;99.90
1005;DHT22;491;53.480;10.174;2023-04-24T16:03:55;12.00;99.90
1005;DHT22;491;53.480;10.174;2023-04-24T16:06:21;11.90;99.90
1005;DHT22;491;53.480;10.174;2023-04-24T16:08:46;11.60;99.90
1005;DHT22;491;53.480;10.174;2023-04-24T16:11:12;11.40;99.90
1005;DHT22;491;53.480;10.174;2023-04-24T16:13:37;11.30;99.90
1005;DHT22;491;53.480;10.174;2023-04-24T16:16:06;11.20;99.90
1005;DHT22;491;53.480;10.174;2023-04-24T16:18:31;11.20;99.90
1005;DHT22;491;53.480;10.174;2023-04-24T16:20:57;11.00;99.90
1005;DHT22;491;53.480;10.174;2023-04-24T16:23:22;11.00;99.90
1005;DHT22;491;53.480;10.174;2023-04-24T16:25:48;10.90;99.90
1005;DHT22;491;53.480;10.174;2023-04-24T16:28:13;10.90;99.90
1005;DHT22;491;53.480;10.174;2023-04-24T16:30:39;10.90;99.90
1005;DHT22;491;53.480;10.174;2023-04-24T16:33:05;10.90;99.90
1005;DHT22;491;53.480;10.174;2023-04-24T16:35:34;11.00;99.90
1005;DHT22;491;53.480;10.174;2023-04-24T16:37:59;11.00;99.90
1005;DHT22;491;53.480;10.174;2023-04-24T16:40:26;11.00;99.90
1005;DHT22;491;53.480;10.174;2023-04-24T16:42:51;11.00;99.90
1005;DHT22;491;53.480;10.174;2023-04-24T16:45:19;11.00;99.90
1005;DHT22;491;53.480;10.174;2023-04-24T16:47:46;10.90;99.90
1005;DHT22;491;53.480;10.174;2023-04-24T16:50:11;10.90;99.90
1005;DHT22;491;53.480;10.174;2023-04-24T16:52:37;10.70;99.90